Pawnee, Louisiana
Current Conditions -  °F | °C
As of 10:35 AM on Wednesday 22 Oct 2014 (Local Time) from KACP Reporting Station
Clear Clear  
Wind Chill: 73°   Ceiling: Unl
Heat Index: 73°   Visibility: 10mi
Dew Point: 60°   Wind: 8mph
Humidity: 63%   Direction: 70°ENE
Pressure: 30.13"   Gusts: NA
Location:  30.9922°N, 92.6266°W
Report Text: KACP 221535Z AUTO 07007KT 040V110 10SM CLR 23/15 A3013 RMK AO2 T02270154
Loading
Personal Weather Stations






























Interactive Weather Map
Tropical Storm Tracking
New forecast layout! Learn more

10-Day Weather Forecast

Advertisements
Track Severe Weather on mobile